Time;durP1;ratioP1;P1;durP2;ratioP2;P2;SDS_P1;SDS_P2;PMS_P1;PMS_P2;Temp;Humidity;BMP_temperature;BMP_pressure;BME280_temperature;BME280_humidity;BME280_pressure;Samples;Min_cycle;Max_cycle;Signal;HPM_P1;HPM_P2
2021/06/20 00:02:34;;;;;;;33.40;9.53;;;25.50;96.70;;;;;;6211975;28;20025;-84
2021/06/20 00:05:42;;;;;;;25.97;9.57;;;25.50;97.20;;;;;;6227827;28;20064;-82
2021/06/20 00:08:43;;;;;;;27.67;10.07;;;25.20;96.50;;;;;;6229484;28;20029;-82
2021/06/20 00:11:44;;;;;;;31.03;9.43;;;25.00;96.70;;;;;;6244821;28;20036;-83
2021/06/20 00:14:45;;;;;;;33.35;8.95;;;24.70;99.90;;;;;;6211471;28;20578;-81
2021/06/20 00:17:46;;;;;;;23.70;9.53;;;25.00;99.90;;;;;;6228256;28;20040;-83
2021/06/20 00:20:47;;;;;;;30.43;9.33;;;24.80;99.90;;;;;;6227864;28;20053;-82
2021/06/20 00:23:48;;;;;;;29.17;10.38;;;24.90;99.90;;;;;;6228116;28;20033;-82
2021/06/20 00:26:48;;;;;;;20.40;8.43;;;24.80;99.90;;;;;;6244252;28;20053;-82
2021/06/20 00:29:49;;;;;;;34.10;9.90;;;;;;;;;;6227418;28;20033;-82
2021/06/20 00:32:50;;;;;;;32.33;9.23;;;24.60;99.90;;;;;;6244577;28;20452;-83
2021/06/20 00:35:51;;;;;;;31.27;9.03;;;;;;;;;;6227684;28;20049;-83
2021/06/20 00:38:52;;;;;;;23.10;9.47;;;;;;;;;;6244037;28;20022;-83
2021/06/20 00:41:53;;;;;;;22.07;7.30;;;24.50;99.90;;;;;;6245274;28;20537;-84
2021/06/20 00:44:54;;;;;;;20.00;9.00;;;;;;;;;;6227724;28;20067;-83
2021/06/20 00:47:55;;;;;;;20.60;8.00;;;24.20;99.90;;;;;;6243889;28;20034;-83
2021/06/20 00:50:56;;;;;;;33.67;8.50;;;;;;;;;;6211086;28;20029;-83
2021/06/20 00:53:57;;;;;;;23.90;8.17;;;24.40;99.90;;;;;;6243405;28;20491;-82
2021/06/20 00:56:57;;;;;;;20.67;7.40;;;24.20;97.40;;;;;;6226929;28;20076;-82
2021/06/20 00:59:58;;;;;;;14.40;5.40;;;24.40;96.30;;;;;;6210727;28;20033;-82
2021/06/20 01:02:59;;;;;;;22.63;5.73;;;24.40;95.80;;;;;;6210623;28;20083;-84
2021/06/20 01:06:00;;;;;;;14.57;5.30;;;24.70;96.20;;;;;;6227033;28;20037;-83
2021/06/20 01:09:01;;;;;;;11.52;4.95;;;24.50;96.00;;;;;;6243321;28;20083;-84
2021/06/20 01:12:02;;;;;;;8.57;4.13;;;24.20;96.10;;;;;;6210786;28;20021;-84
2021/06/20 01:15:07;;;;;;;10.27;4.47;;;24.20;95.20;;;;;;6209067;28;20053;-83
2021/06/20 01:18:08;;;;;;;7.47;4.20;;;24.20;95.10;;;;;;6210926;28;20036;-83
2021/06/20 01:21:09;;;;;;;16.50;4.73;;;24.30;95.40;;;;;;6226548;28;20034;-83
2021/06/20 01:24:10;;;;;;;8.33;4.20;;;24.20;95.70;;;;;;6226435;28;20598;-84
2021/06/20 01:27:11;;;;;;;10.53;4.83;;;24.20;96.00;;;;;;6226446;28;20032;-83
2021/06/20 01:30:14;;;;;;;8.20;3.97;;;24.10;96.90;;;;;;6210118;28;20026;-84
2021/06/20 01:33:15;;;;;;;8.80;4.07;;;25.00;96.40;;;;;;6226828;28;20390;-83
2021/06/20 01:36:15;;;;;;;10.77;3.60;;;23.90;95.70;;;;;;6226440;28;20037;-83
2021/06/20 01:39:16;;;;;;;10.93;3.87;;;23.70;96.90;;;;;;6209936;28;20029;-84
2021/06/20 01:42:17;;;;;;;6.85;3.28;;;23.60;96.30;;;;;;6242516;28;20025;-81
2021/06/20 01:45:18;;;;;;;9.85;3.45;;;23.40;96.70;;;;;;6226726;28;20044;-84
2021/06/20 01:48:19;;;;;;;10.70;3.38;;;23.40;99.90;;;;;;6225776;28;20025;-83
2021/06/20 01:51:19;;;;;;;7.67;3.70;;;23.40;95.80;;;;;;6226322;28;20084;-81
2021/06/20 01:54:20;;;;;;;8.50;3.65;;;23.30;96.90;;;;;;6209431;28;20029;-82
2021/06/20 01:57:28;;;;;;;6.33;3.33;;;23.20;97.40;;;;;;6209722;28;20033;-82
2021/06/20 02:00:29;;;;;;;7.45;3.45;;;23.00;95.40;;;;;;6210698;28;20033;-83
2021/06/20 02:03:29;;;;;;;7.35;3.28;;;22.90;97.20;;;;;;6225615;28;20478;-83
2021/06/20 02:06:34;;;;;;;8.50;3.13;;;22.90;97.20;;;;;;6225613;28;20063;-82
2021/06/20 02:09:35;;;;;;;12.18;3.92;;;22.90;96.10;;;;;;6226021;28;20399;-83
2021/06/20 02:12:35;;;;;;;9.10;3.90;;;23.10;95.40;;;;;;6209332;28;20030;-83
2021/06/20 02:15:36;;;;;;;5.33;3.37;;;22.90;96.00;;;;;;6209018;28;20074;-84
2021/06/20 02:18:37;;;;;;;11.13;3.58;;;22.90;96.50;;;;;;6225711;28;20598;-84
2021/06/20 02:21:38;;;;;;;7.93;3.60;;;;;;;;;;6209393;28;20029;-84
2021/06/20 02:24:38;;;;;;;6.47;3.40;;;22.50;95.80;;;;;;6225981;28;20467;-84
2021/06/20 02:27:39;;;;;;;11.75;3.92;;;22.40;97.40;;;;;;6225449;28;20061;-82
2021/06/20 02:30:40;;;;;;;8.68;3.63;;;22.50;97.70;;;;;;6225164;28;20030;-82
2021/06/20 02:33:40;;;;;;;6.60;3.47;;;22.30;97.30;;;;;;6225201;28;20040;-83
2021/06/20 02:36:41;;;;;;;8.35;3.10;;;22.20;97.70;;;;;;6208813;28;20041;-84
2021/06/20 02:39:41;;;;;;;6.82;3.10;;;22.30;97.40;;;;;;6225457;28;20383;-84
2021/06/20 02:42:43;;;;;;;8.23;3.35;;;22.00;97.40;;;;;;6208937;28;20472;-83
2021/06/20 02:45:43;;;;;;;6.45;3.13;;;22.00;96.70;;;;;;6225506;28;20026;-84
2021/06/20 02:48:44;;;;;;;4.97;2.67;;;22.20;96.90;;;;;;6209013;28;20123;-84
2021/06/20 02:51:45;;;;;;;5.88;3.20;;;22.10;96.60;;;;;;6209207;28;20022;-83
2021/06/20 02:54:51;;;;;;;5.20;3.13;;;22.10;96.50;;;;;;6208556;28;20037;-82
2021/06/20 02:57:52;;;;;;;7.97;3.28;;;22.10;96.00;;;;;;6225985;28;20033;-82
2021/06/20 03:00:52;;;;;;;4.88;2.95;;;21.90;98.70;;;;;;6225036;28;20376;-83
2021/06/20 03:03:53;;;;;;;8.13;3.70;;;21.90;99.20;;;;;;6225500;28;20111;-82
2021/06/20 03:06:53;;;;;;;7.13;2.92;;;21.70;99.00;;;;;;6224976;28;20036;-85
2021/06/20 03:09:54;;;;;;;7.80;3.00;;;21.70;99.90;;;;;;6224968;28;20079;-82
2021/06/20 03:12:55;;;;;;;9.48;3.50;;;21.40;98.50;;;;;;6208576;28;20026;-82
2021/06/20 03:15:55;;;;;;;7.25;2.88;;;21.30;99.90;;;;;;6224739;28;20423;-82
2021/06/20 03:18:56;;;;;;;5.85;2.85;;;21.30;99.90;;;;;;6224928;28;20085;-83
2021/06/20 03:22:00;;;;;;;5.97;3.10;;;21.30;99.90;;;;;;6224738;28;20064;-82
2021/06/20 03:25:01;;;;;;;8.63;3.30;;;20.90;99.90;;;;;;6225377;28;20123;-82
2021/06/20 03:28:02;;;;;;;11.05;3.50;;;;;;;;;;6224887;28;20029;-82
2021/06/20 03:31:03;;;;;;;7.07;3.13;;;;;;;;;;6241171;28;20034;-83
2021/06/20 03:34:04;;;;;;;5.93;3.50;;;;;;;;;;6242853;28;20064;-83
2021/06/20 03:37:06;;;;;;;9.98;3.78;;;;;;;;;;6241346;28;20041;-85
2021/06/20 03:40:07;;;;;;;8.40;3.50;;;20.70;99.90;;;;;;6227965;28;20026;-81
2021/06/20 03:43:08;;;;;;;8.63;3.72;;;;;;;;;;6229731;28;20044;-81
2021/06/20 03:46:10;;;;;;;6.18;3.00;;;;;;;;;;6245541;28;20033;-82
2021/06/20 03:49:11;;;;;;;7.05;3.30;;;;;;;;;;6245418;28;20032;-83
2021/06/20 03:52:12;;;;;;;7.82;3.75;;;;;;;;;;6245793;28;20348;-81
2021/06/20 03:55:13;;;;;;;7.50;3.83;;;;;;;;;;6245485;28;20037;-82
2021/06/20 03:58:13;;;;;;;5.45;3.13;;;20.70;99.90;;;;;;6245198;28;20124;-83
2021/06/20 04:01:14;;;;;;;8.45;3.47;;;21.20;99.90;;;;;;6228758;28;20029;-82
2021/06/20 04:04:15;;;;;;;7.30;3.00;;;20.80;99.90;;;;;;6228229;28;20025;-84
2021/06/20 04:07:16;;;;;;;4.82;2.90;;;20.90;99.90;;;;;;6212611;28;20034;-82
2021/06/20 04:10:17;;;;;;;7.97;3.95;;;20.90;99.90;;;;;;6228909;28;20029;-84
2021/06/20 04:13:17;;;;;;;7.40;3.38;;;21.00;99.90;;;;;;6228789;28;20037;-83
2021/06/20 04:16:18;;;;;;;9.10;3.35;;;21.10;99.90;;;;;;6228030;28;20510;-83
2021/06/20 04:19:19;;;;;;;7.38;3.88;;;20.90;99.90;;;;;;6228488;28;20594;-83
2021/06/20 04:22:19;;;;;;;5.82;3.45;;;20.90;99.90;;;;;;6211988;28;20113;-85
2021/06/20 04:25:20;;;;;;;6.72;3.15;;;20.90;99.90;;;;;;6228371;28;20042;-83
2021/06/20 04:28:21;;;;;;;6.50;3.60;;;20.80;99.90;;;;;;6228035;28;20036;-83
2021/06/20 04:31:21;;;;;;;7.55;3.88;;;20.80;99.90;;;;;;6228430;28;20383;-83
2021/06/20 04:34:22;;;;;;;6.00;2.90;;;20.80;99.90;;;;;;6227372;28;20029;-82
2021/06/20 04:37:23;;;;;;;6.18;3.35;;;20.80;99.90;;;;;;6227383;28;20484;-85
2021/06/20 04:40:24;;;;;;;8.38;3.47;;;20.90;99.90;;;;;;6227913;28;20029;-86
2021/06/20 04:46:57;;;;;;;7.32;3.42;;;20.90;99.90;;;;;;6220709;28;20033;-82
2021/06/20 04:49:58;;;;;;;4.82;3.10;;;21.00;99.90;;;;;;6227652;28;20033;-82
2021/06/20 04:52:59;;;;;;;10.05;3.67;;;21.00;99.90;;;;;;6227817;28;20025;-82
2021/06/20 04:55:59;;;;;;;8.02;3.10;;;21.20;99.90;;;;;;6226863;28;20075;-85
2021/06/20 04:59:00;;;;;;;7.57;3.40;;;21.10;99.90;;;;;;6244281;28;20033;-83
2021/06/20 05:02:00;;;;;;;7.57;3.42;;;21.10;99.90;;;;;;6227411;28;20032;-84
2021/06/20 05:05:02;;;;;;;6.50;3.85;;;21.40;99.90;;;;;;6244286;28;20036;-82
2021/06/20 05:08:02;;;;;;;5.07;3.63;;;21.20;99.90;;;;;;6244931;28;20060;-81
2021/06/20 05:11:03;;;;;;;8.48;3.45;;;21.20;99.90;;;;;;6244051;28;20120;-82
2021/06/20 05:14:03;;;;;;;5.40;3.15;;;21.20;99.90;;;;;;6210608;28;20156;-85
2021/06/20 05:17:04;;;;;;;4.88;3.65;;;21.20;99.90;;;;;;6226635;28;20094;-85
2021/06/20 05:20:05;;;;;;;7.70;3.15;;;21.30;99.90;;;;;;6226635;28;20060;-83
2021/06/20 05:23:06;;;;;;;5.53;3.10;;;21.30;99.90;;;;;;6243434;28;20400;-82
2021/06/20 05:26:06;;;;;;;6.82;3.78;;;21.30;99.90;;;;;;6226730;28;20040;-84
2021/06/20 05:29:07;;;;;;;8.10;3.78;;;21.30;99.90;;;;;;6210132;28;20036;-84
2021/06/20 05:32:08;;;;;;;6.40;3.33;;;21.40;99.90;;;;;;6210419;28;20156;-86
2021/06/20 05:35:08;;;;;;;8.30;3.65;;;21.10;99.90;;;;;;6210021;28;20076;-84
2021/06/20 05:38:09;;;;;;;7.70;3.20;;;21.20;99.90;;;;;;6226435;28;20061;-88
2021/06/20 05:41:10;;;;;;;6.43;3.40;;;21.30;99.90;;;;;;6209990;28;20586;-84
2021/06/20 05:44:11;;;;;;;4.15;3.10;;;21.40;99.90;;;;;;6210020;28;20025;-84
2021/06/20 05:47:11;;;;;;;5.00;3.03;;;21.50;99.90;;;;;;6210233;28;20021;-83
2021/06/20 05:50:12;;;;;;;4.05;2.67;;;21.50;99.90;;;;;;6226268;28;20112;-85
2021/06/20 05:53:13;;;;;;;4.85;3.10;;;;;;;;;;6226529;28;20467;-84
2021/06/20 05:56:13;;;;;;;3.78;2.97;;;21.60;99.90;;;;;;6226353;28;20025;-85
2021/06/20 05:59:14;;;;;;;5.43;2.95;;;21.60;99.90;;;;;;6210161;28;20109;-84
2021/06/20 06:02:14;;;;;;;3.83;2.50;;;21.60;99.90;;;;;;6225542;28;20037;-86
2021/06/20 06:05:15;;;;;;;3.28;2.50;;;21.70;99.90;;;;;;6226130;28;20456;-83
2021/06/20 06:08:16;;;;;;;6.90;2.80;;;21.60;99.90;;;;;;6210469;28;20206;-87
2021/06/20 06:11:16;;;;;;;5.07;3.00;;;22.40;99.90;;;;;;6210367;28;20037;-88
2021/06/20 06:14:17;;;;;;;6.68;3.40;;;21.70;99.90;;;;;;6210189;28;20061;-88
2021/06/20 06:17:20;;;;;;;5.50;2.80;;;21.90;99.90;;;;;;6209616;28;20116;-86
2021/06/20 06:20:21;;;;;;;5.97;2.50;;;21.80;99.90;;;;;;6209950;28;20025;-89
2021/06/20 06:23:22;;;;;;;5.45;2.80;;;;;;;;;;6209891;28;20391;-88
2021/06/20 06:26:23;;;;;;;5.00;2.83;;;21.90;98.70;;;;;;6226909;28;20049;-88
2021/06/20 06:29:23;;;;;;;7.80;3.35;;;21.90;99.90;;;;;;6210465;28;20356;-86
2021/06/20 06:32:24;;;;;;;4.63;2.90;;;21.90;99.90;;;;;;6209673;28;20033;-86
2021/06/20 06:35:25;;;;;;;4.63;3.35;;;22.10;99.90;;;;;;6210009;28;20040;-86
2021/06/20 06:38:26;;;;;;;8.82;4.05;;;22.00;99.90;;;;;;6209776;28;20079;-86
2021/06/20 06:41:27;;;;;;;5.07;3.50;;;;;;;;;;6210086;28;20029;-86
2021/06/20 06:44:28;;;;;;;6.07;3.33;;;;;;;;;;6225899;28;20322;-88
2021/06/20 06:47:29;;;;;;;9.80;3.65;;;21.90;98.00;;;;;;6226076;28;20025;-88
2021/06/20 06:50:29;;;;;;;3.80;3.03;;;22.40;99.90;;;;;;6210262;28;20032;-88
2021/06/20 06:53:30;;;;;;;6.53;2.92;;;22.20;99.40;;;;;;6210296;28;20029;-88
2021/06/20 06:56:31;;;;;;;3.95;2.78;;;22.20;99.10;;;;;;6209591;28;20061;-87
2021/06/20 06:59:32;;;;;;;5.40;2.90;;;;;;;;;;6210148;28;20075;-88
2021/06/20 07:02:32;;;;;;;5.15;2.97;;;22.30;97.40;;;;;;6226275;28;20082;-87
2021/06/20 07:05:33;;;;;;;3.25;2.95;;;;;;;;;;6210109;28;20029;-88
2021/06/20 07:08:34;;;;;;;4.03;3.20;;;;;;;;;;6226357;28;20171;-88
2021/06/20 07:11:35;;;;;;;5.38;3.00;;;22.40;99.20;;;;;;6225857;28;20518;-88
2021/06/20 07:14:37;;;;;;;5.20;2.73;;;22.30;99.90;;;;;;6211783;28;20107;-87
2021/06/20 07:17:37;;;;;;;4.47;2.80;;;22.50;99.90;;;;;;6212689;28;20395;-86
2021/06/20 07:20:38;;;;;;;7.00;3.00;;;22.40;99.90;;;;;;6213560;28;20108;-88
2021/06/20 07:23:39;;;;;;;4.43;3.28;;;;;;;;;;6213677;28;20037;-87
2021/06/20 07:26:40;;;;;;;4.35;2.95;;;22.50;98.30;;;;;;6224815;28;20155;-87
2021/06/20 07:29:48;;;;;;;3.95;3.28;;;22.80;99.90;;;;;;6213905;28;20068;-88
2021/06/20 07:32:49;;;;;;;5.47;3.17;;;22.60;99.60;;;;;;6215444;28;20463;-87
2021/06/20 07:35:52;;;;;;;4.63;3.00;;;22.70;99.80;;;;;;6213791;28;20041;-84
2021/06/20 07:38:52;;;;;;;5.72;3.08;;;22.90;99.90;;;;;;6211399;28;20048;-81
2021/06/20 07:41:53;;;;;;;3.38;2.92;;;22.60;99.80;;;;;;6245379;28;20037;-78
2021/06/20 07:44:53;;;;;;;5.75;2.80;;;22.60;99.10;;;;;;6228386;28;20033;-78
2021/06/20 07:47:54;;;;;;;6.50;3.15;;;;;;;;;;6228576;28;20029;-77
2021/06/20 07:50:55;;;;;;;4.43;3.05;;;22.30;99.90;;;;;;6246553;28;20026;-76
2021/06/20 07:53:56;;;;;;;4.15;2.92;;;22.60;99.90;;;;;;6246729;28;20069;-74
2021/06/20 07:56:57;;;;;;;4.20;2.88;;;;;;;;;;6245084;28;20053;-75
2021/06/20 07:59:57;;;;;;;4.90;3.05;;;22.40;99.90;;;;;;6246781;28;20033;-83
2021/06/20 08:02:58;;;;;;;4.03;2.90;;;22.60;99.90;;;;;;6228877;28;20104;-84
2021/06/20 08:06:02;;;;;;;5.28;3.28;;;23.00;99.90;;;;;;6228057;28;20061;-88
2021/06/20 08:09:03;;;;;;;7.35;3.30;;;23.00;99.90;;;;;;6212864;28;20029;-85
2021/06/20 08:12:04;;;;;;;6.43;3.07;;;23.10;99.90;;;;;;6212003;28;20033;-81
2021/06/20 08:15:06;;;;;;;6.95;3.30;;;23.40;99.90;;;;;;6210609;28;20054;-81
2021/06/20 08:18:07;;;;;;;6.60;2.88;;;23.30;99.90;;;;;;6245508;28;20455;-84
2021/06/20 08:21:07;;;;;;;5.82;2.70;;;23.60;99.00;;;;;;6228296;28;20040;-87
2021/06/20 08:24:08;;;;;;;5.65;2.63;;;23.80;99.80;;;;;;6211710;28;20044;-83
2021/06/20 08:27:09;;;;;;;3.92;2.80;;;;;;;;;;6211887;28;20034;-85
2021/06/20 08:30:11;;;;;;;3.90;2.60;;;23.90;96.60;;;;;;6244801;28;20383;-79
2021/06/20 08:33:11;;;;;;;6.13;2.65;;;23.80;97.80;;;;;;6243994;28;20030;-75
2021/06/20 08:36:12;;;;;;;4.57;2.83;;;24.20;96.90;;;;;;6244267;28;20072;-87
2021/06/20 08:39:13;;;;;;;5.27;2.60;;;24.40;94.30;;;;;;6227873;28;20096;-87
2021/06/20 08:42:13;;;;;;;4.50;2.60;;;24.20;99.90;;;;;;6211717;28;20032;-80
2021/06/20 08:45:15;;;;;;;5.57;2.67;;;24.20;93.70;;;;;;6243671;28;20033;-86
2021/06/20 08:48:16;;;;;;;5.85;2.65;;;24.20;94.20;;;;;;6227690;28;20025;-85
2021/06/20 08:51:16;;;;;;;4.60;3.00;;;24.20;93.40;;;;;;6211681;28;20044;-85
2021/06/20 08:54:17;;;;;;;3.50;2.40;;;24.30;94.80;;;;;;6227752;28;20388;-76
2021/06/20 08:57:17;;;;;;;6.57;3.00;;;23.80;99.80;;;;;;6244617;28;20116;-75
2021/06/20 09:00:19;;;;;;;4.47;2.80;;;24.00;94.50;;;;;;6245258;28;20372;-75
2021/06/20 09:03:20;;;;;;;5.70;2.40;;;24.00;94.60;;;;;;6245093;28;20017;-75
2021/06/20 09:06:21;;;;;;;5.23;2.70;;;24.10;94.00;;;;;;6242917;28;20029;-78
2021/06/20 09:09:35;;;;;;;7.63;2.60;;;24.50;92.30;;;;;;6242559;28;20035;-76
2021/06/20 09:12:47;;;;;;;5.68;2.53;;;24.70;90.30;;;;;;6225001;28;20026;-76
2021/06/20 09:15:57;;;;;;;;;;;25.00;91.10;;;;;;6244024;28;20057;-75
2021/06/20 09:18:58;;;;;;;3.92;2.65;;;25.40;89.80;;;;;;6244106;28;19916;-75
2021/06/20 09:22:01;;;;;;;6.67;3.17;;;25.60;90.80;;;;;;6210497;28;20535;-75
2021/06/20 09:25:05;;;;;;;8.80;2.85;;;26.00;90.70;;;;;;6243049;28;20056;-77
2021/06/20 09:28:06;;;;;;;5.88;2.85;;;26.30;88.80;;;;;;6242918;28;20116;-77
2021/06/20 09:31:06;;;;;;;5.60;2.93;;;26.50;90.50;;;;;;6243103;28;20087;-74
2021/06/20 09:34:07;;;;;;;6.10;2.93;;;28.70;90.90;;;;;;6244818;28;20041;-73
2021/06/20 09:37:08;;;;;;;6.83;2.83;;;;;;;;;;6241558;28;20621;-77
2021/06/20 09:40:13;;;;;;;6.15;2.85;;;27.00;84.10;;;;;;6226378;28;20030;-75
2021/06/20 09:43:15;;;;;;;8.88;3.25;;;27.00;89.20;;;;;;6244366;28;20499;-76
2021/06/20 09:46:15;;;;;;;8.40;3.65;;;26.90;89.40;;;;;;6243535;28;20028;-75
2021/06/20 09:49:25;;;;;;;6.53;2.90;;;26.90;88.80;;;;;;6243058;28;20048;-75
2021/06/20 09:52:27;;;;;;;6.00;2.85;;;27.10;90.30;;;;;;6226820;28;20037;-74
2021/06/20 09:55:27;;;;;;;;;;;27.20;90.80;;;;;;6242750;28;20088;-75
2021/06/20 09:58:28;;;;;;;12.48;3.42;;;27.50;89.40;;;;;;6242429;28;19905;-76
2021/06/20 10:01:30;;;;;;;7.40;3.20;;;27.30;99.90;;;;;;6243539;28;20361;-75
2021/06/20 10:04:31;;;;;;;8.07;3.40;;;27.60;95.60;;;;;;6243474;28;20475;-76
2021/06/20 10:07:32;;;;;;;10.00;3.50;;;;;;;;;;6242732;28;20036;-74
2021/06/20 10:10:33;;;;;;;9.82;3.88;;;27.70;93.80;;;;;;6241961;28;20480;-78
2021/06/20 10:13:33;;;;;;;14.10;3.70;;;27.40;99.90;;;;;;6242571;28;20033;-75
2021/06/20 10:16:37;;;;;;;5.30;3.57;;;;;;;;;;6243076;28;20485;-78
2021/06/20 10:19:41;;;;;;;10.00;3.30;;;;;;;;;;6243421;28;20083;-78
2021/06/20 10:22:47;;;;;;;7.28;4.20;;;26.60;94.30;;;;;;6241887;28;20032;-78
2021/06/20 10:25:47;;;;;;;6.55;3.03;;;26.70;97.30;;;;;;6243506;28;20025;-80
2021/06/20 10:28:51;;;;;;;9.50;3.87;;;26.40;88.30;;;;;;6241093;28;20426;-77
2021/06/20 10:31:52;;;;;;;7.55;3.20;;;26.20;92.10;;;;;;6242090;28;20024;-77
2021/06/20 10:34:58;;;;;;;8.88;3.50;;;26.50;91.80;;;;;;6242336;28;20632;-76
2021/06/20 10:37:59;;;;;;;9.82;3.75;;;27.20;91.00;;;;;;6240589;28;20057;-76
2021/06/20 10:40:59;;;;;;;7.27;3.30;;;28.10;88.40;;;;;;6241898;28;20070;-77
2021/06/20 10:44:01;;;;;;;5.40;2.93;;;29.50;92.30;;;;;;6224891;28;20037;-77
2021/06/20 10:47:01;;;;;;;9.25;3.75;;;29.80;93.10;;;;;;6242609;28;20022;-76
2021/06/20 10:50:06;;;;;;;6.20;3.30;;;30.20;81.70;;;;;;6246423;28;20369;-77
2021/06/20 10:53:07;;;;;;;10.40;3.72;;;30.70;78.40;;;;;;6247667;28;20069;-76
2021/06/20 10:56:07;;;;;;;8.97;3.80;;;30.80;76.00;;;;;;6228731;28;20090;-77
2021/06/20 10:59:08;;;;;;;10.93;4.03;;;30.60;87.20;;;;;;6228384;28;20041;-77
2021/06/20 11:02:22;;;;;;;10.87;3.97;;;30.80;76.80;;;;;;6247291;28;20025;-78
2021/06/20 11:05:26;;;;;;;9.65;4.13;;;31.00;76.20;;;;;;6246252;28;20029;-77
2021/06/20 11:08:39;;;;;;;10.00;3.67;;;30.30;74.20;;;;;;6245942;28;20038;-76
2021/06/20 11:11:53;;;;;;;11.00;4.70;;;31.70;74.20;;;;;;6247117;28;20030;-77
2021/06/20 11:14:54;;;;;;;16.08;4.72;;;31.20;70.80;;;;;;6246565;28;20053;-77
2021/06/20 11:18:10;;;;;;;13.20;4.28;;;30.70;72.30;;;;;;6247536;28;20026;-79
2021/06/20 11:21:11;;;;;;;15.18;4.80;;;30.40;73.40;;;;;;6229766;28;20033;-77
2021/06/20 11:24:15;;;;;;;11.48;4.55;;;30.00;75.80;;;;;;6246165;28;20037;-78
2021/06/20 11:27:16;;;;;;;11.65;4.90;;;30.30;78.80;;;;;;6246200;28;20043;-78
2021/06/20 11:30:17;;;;;;;;;;;30.70;76.40;;;;;;6246842;28;20037;-78
2021/06/20 11:33:26;;;;;;;15.70;4.63;;;31.00;76.80;;;;;;6246382;28;19920;-77
2021/06/20 11:36:27;;;;;;;15.45;4.80;;;31.40;74.60;;;;;;6245279;28;20464;-77
2021/06/20 11:39:33;;;;;;;21.05;6.22;;;31.50;72.10;;;;;;6245133;28;20095;-77
2021/06/20 11:42:35;;;;;;;25.25;6.55;;;31.60;71.80;;;;;;6228944;28;20128;-77
2021/06/20 11:45:37;;;;;;;17.35;6.00;;;31.50;70.80;;;;;;6246075;28;20041;-77
2021/06/20 11:48:37;;;;;;;16.98;6.05;;;31.50;72.00;;;;;;6245705;28;20542;-77
2021/06/20 11:51:41;;;;;;;20.53;5.53;;;31.60;70.60;;;;;;6246290;28;20502;-77
2021/06/20 11:54:41;;;;;;;21.10;6.38;;;31.70;70.80;;;;;;6246546;28;20087;-84
2021/06/20 11:57:42;;;;;;;17.75;5.90;;;31.70;72.60;;;;;;6228617;28;20492;-84
2021/06/20 12:00:44;;;;;;;15.53;5.63;;;31.60;72.40;;;;;;6228764;28;20040;-86
2021/06/20 12:03:50;;;;;;;18.55;5.90;;;31.60;73.80;;;;;;6228887;28;20290;-85
2021/06/20 12:06:51;;;;;;;18.77;7.00;;;31.50;71.00;;;;;;6215414;28;20079;-84
2021/06/20 12:09:52;;;;;;;22.50;6.15;;;31.30;71.70;;;;;;6212472;28;20037;-82
2021/06/20 12:13:03;;;;;;;25.70;5.87;;;31.30;72.50;;;;;;6225249;28;20589;-85
2021/06/20 12:16:04;;;;;;;26.17;5.82;;;31.20;71.40;;;;;;6210859;28;20396;-83
2021/06/20 12:19:11;;;;;;;26.53;5.90;;;31.20;71.60;;;;;;6203107;28;20025;-88
2021/06/20 12:22:14;;;;;;;17.58;5.60;;;30.90;72.00;;;;;;6220630;28;20288;-88
2021/06/20 12:25:14;;;;;;;21.02;6.53;;;31.10;71.20;;;;;;6213150;28;20040;-84
2021/06/20 12:28:17;;;;;;;17.13;5.93;;;31.20;68.40;;;;;;6228102;28;20025;-84
2021/06/20 12:31:18;;;;;;;20.83;6.43;;;31.10;70.90;;;;;;6244397;28;20040;-84
2021/06/20 12:34:18;;;;;;;23.00;6.13;;;31.30;93.20;;;;;;6227382;28;20531;-84
2021/06/20 12:37:22;;;;;;;24.65;6.50;;;31.30;71.30;;;;;;6227776;28;20045;-84
2021/06/20 12:40:28;;;;;;;22.00;6.07;;;31.20;79.90;;;;;;6244151;28;20041;-84
2021/06/20 12:43:29;;;;;;;20.70;6.82;;;31.40;68.50;;;;;;6228562;28;20061;-84
2021/06/20 12:46:31;;;;;;;26.75;6.43;;;31.50;83.20;;;;;;6228185;28;20030;-84
2021/06/20 12:49:33;;;;;;;21.15;5.97;;;;;;;;;;6227935;28;20387;-84
2021/06/20 12:52:36;;;;;;;25.77;5.82;;;31.50;77.70;;;;;;6244487;28;20069;-85
2021/06/20 12:55:36;;;;;;;24.38;6.90;;;31.60;81.50;;;;;;6227995;28;20530;-85
2021/06/20 12:58:37;;;;;;;23.60;6.33;;;31.20;78.80;;;;;;6211381;28;20036;-85
2021/06/20 13:01:48;;;;;;;21.90;6.37;;;31.10;65.10;;;;;;6243332;28;20761;-84
2021/06/20 13:04:48;;;;;;;22.77;6.40;;;31.00;66.60;;;;;;6245577;28;20272;-85
2021/06/20 13:07:51;;;;;;;26.70;7.28;;;30.90;68.40;;;;;;6227188;28;20022;-84
2021/06/20 13:10:51;;;;;;;24.50;5.95;;;30.60;66.70;;;;;;6227561;28;20029;-84
2021/06/20 13:13:52;;;;;;;22.60;6.27;;;30.50;66.90;;;;;;6243503;28;20040;-84
2021/06/20 13:16:53;;;;;;;25.37;5.80;;;;;;;;;;6210389;28;20344;-83
2021/06/20 13:19:54;;;;;;;24.98;6.53;;;30.10;65.90;;;;;;6226340;28;20029;-83
2021/06/20 13:22:55;;;;;;;26.93;6.93;;;30.00;67.20;;;;;;6227040;28;20096;-85
2021/06/20 13:25:55;;;;;;;27.60;6.65;;;30.00;67.40;;;;;;6226776;28;20040;-85
2021/06/20 13:28:56;;;;;;;22.73;6.97;;;29.90;68.40;;;;;;6209934;28;20504;-84
2021/06/20 13:32:20;;;;;;;28.43;7.83;;;29.80;68.50;;;;;;6226790;28;20441;-91
2021/06/20 13:35:21;;;;;;;21.45;6.35;;;;;;;;;;6186247;28;20042;-90
2021/06/20 13:38:25;;;;;;;20.52;7.05;;;29.50;86.40;;;;;;6206377;28;20096;-90
2021/06/20 13:41:29;;;;;;;18.55;5.32;;;29.50;72.50;;;;;;6196265;28;20397;-91
2021/06/20 13:45:18;;;;;;;18.70;6.35;;;28.40;77.60;;;;;;6199687;28;20029;-92
2021/06/20 13:48:19;;;;;;;16.35;5.55;;;;;;;;;;6207976;28;20502;-84
2021/06/20 13:51:20;;;;;;;19.08;6.28;;;29.50;96.30;;;;;;6191747;28;20030;-83
2021/06/20 13:54:21;;;;;;;21.10;6.87;;;;;;;;;;6207637;28;20070;-82
2021/06/20 13:57:22;;;;;;;14.75;6.35;;;;;;;;;;6193659;28;20120;-84
2021/06/20 14:00:23;;;;;;;;;;;29.50;80.00;;;;;;6192958;28;20562;-82
2021/06/20 14:03:33;;;;;;;23.13;7.03;;;;;;;;;;6175740;28;19914;-88
2021/06/20 14:06:34;;;;;;;21.63;8.32;;;;;;;;;;6197123;28;20045;-84
2021/06/20 14:09:41;;;;;;;22.88;7.38;;;29.10;82.90;;;;;;6192660;28;20030;-89
2021/06/20 14:12:43;;;;;;;17.73;6.90;;;;;;;;;;6211505;28;20175;-83
2021/06/20 14:15:43;;;;;;;20.75;6.97;;;28.50;86.90;;;;;;6225559;28;20060;-86
2021/06/20 14:18:44;;;;;;;25.97;7.90;;;28.20;96.10;;;;;;6226576;28;20029;-86
2021/06/20 14:21:47;;;;;;;27.07;7.10;;;;;;;;;;6225360;28;20475;-83
2021/06/20 14:24:48;;;;;;;29.63;7.35;;;;;;;;;;6224128;28;20037;-82
2021/06/20 14:27:48;;;;;;;25.35;7.30;;;27.90;83.80;;;;;;6243245;28;20021;-80
2021/06/20 14:30:49;;;;;;;24.93;6.90;;;;;;;;;;6241975;28;20044;-83
2021/06/20 14:33:50;;;;;;;23.48;7.13;;;27.70;90.10;;;;;;6223851;28;20025;-82
2021/06/20 14:36:50;;;;;;;19.20;7.27;;;27.80;88.40;;;;;;6241943;28;20124;-82
2021/06/20 14:39:54;;;;;;;25.30;6.67;;;27.50;88.00;;;;;;6225642;28;20027;-81
2021/06/20 14:42:55;;;;;;;18.73;5.63;;;27.40;90.10;;;;;;6209316;28;20033;-84
2021/06/20 14:45:56;;;;;;;25.65;7.53;;;27.50;90.70;;;;;;6225720;28;20053;-83
2021/06/20 14:48:56;;;;;;;20.40;6.63;;;27.00;88.80;;;;;;6225572;28;20391;-79
2021/06/20 14:51:57;;;;;;;24.13;7.03;;;27.00;91.90;;;;;;6243103;28;20021;-79
2021/06/20 14:54:58;;;;;;;19.00;7.00;;;26.80;92.20;;;;;;6243444;28;20029;-86
2021/06/20 14:57:59;;;;;;;19.98;6.13;;;26.60;92.00;;;;;;6242144;28;20030;-83
2021/06/20 15:00:59;;;;;;;26.97;6.87;;;26.50;92.30;;;;;;6243409;28;20068;-86
2021/06/20 15:04:00;;;;;;;33.20;7.70;;;26.40;92.90;;;;;;6209014;28;20068;-88
2021/06/20 15:07:01;;;;;;;18.60;6.83;;;26.20;92.70;;;;;;6209078;28;20026;-81
2021/06/20 15:10:02;;;;;;;24.50;7.03;;;26.00;94.30;;;;;;6225350;28;20068;-84
2021/06/20 15:13:03;;;;;;;34.00;9.35;;;25.90;94.80;;;;;;6208919;28;20439;-82
2021/06/20 15:16:04;;;;;;;34.07;8.03;;;25.80;94.30;;;;;;6224954;28;20077;-86
2021/06/20 15:19:05;;;;;;;28.75;8.32;;;25.40;93.50;;;;;;6208631;28;20041;-81
2021/06/20 15:22:05;;;;;;;27.50;6.87;;;25.30;95.30;;;;;;6225225;28;20450;-77
2021/06/20 17:53:55;;;;;;;5.85;2.78;;;18.90;99.90;;;;;;6321625;27;20373;-82
2021/06/20 17:56:56;;;;;;;14.48;2.90;;;;;;;;;;6263160;28;20045;-81
2021/06/20 17:59:56;;;;;;;8.38;2.50;;;18.00;99.90;;;;;;6298502;28;20025;-81
2021/06/20 18:02:58;;;;;;;7.85;2.58;;;;;;;;;;6288445;28;20075;-82
2021/06/20 18:05:59;;;;;;;7.45;2.75;;;;;;;;;;6272910;28;20079;-81
2021/06/20 18:09:00;;;;;;;7.07;3.03;;;;;;;;;;6274930;28;20633;-81
2021/06/20 18:12:01;;;;;;;9.40;3.27;;;;;;;;;;6319052;28;20478;-81
2021/06/20 18:15:02;;;;;;;8.75;3.17;;;;;;;;;;6289302;28;20479;-80
2021/06/20 18:18:04;;;;;;;11.88;3.15;;;18.00;99.90;;;;;;6287494;28;20031;-78
2021/06/20 18:21:05;;;;;;;9.23;2.58;;;18.20;99.90;;;;;;6264664;28;20037;-80
2021/06/20 18:24:08;;;;;;;7.10;3.08;;;18.00;99.90;;;;;;6263823;28;20051;-82
2021/06/20 18:27:09;;;;;;;8.65;3.22;;;18.10;99.90;;;;;;6247285;28;20418;-82
2021/06/20 18:30:10;;;;;;;7.57;2.85;;;18.10;99.90;;;;;;6262867;28;20040;-81
2021/06/20 18:33:12;;;;;;;5.28;2.90;;;18.10;99.90;;;;;;6262961;28;20124;-81
2021/06/20 18:36:12;;;;;;;8.73;3.05;;;18.10;99.90;;;;;;6246611;28;20030;-80